createdAt,value
2018-10-18T00:02:06.748Z,52.17
2018-10-18T00:07:09.074Z,48.33
2018-10-18T00:12:11.475Z,51.25
2018-10-18T00:17:19.560Z,48.87
2018-10-18T00:22:21.924Z,48.20
2018-10-18T00:27:24.226Z,56.95
2018-10-18T00:32:26.516Z,47.90
2018-10-18T00:37:29.108Z,50.50
2018-10-18T00:42:31.439Z,56.80
2018-10-18T00:47:33.815Z,48.35
2018-10-18T00:52:36.136Z,53.95
2018-10-18T00:57:39.070Z,49.85
2018-10-18T01:02:41.397Z,48.17
2018-10-18T01:07:43.759Z,46.48
2018-10-18T01:12:46.177Z,48.85
2018-10-18T01:17:48.443Z,58.28
2018-10-18T01:22:50.813Z,59.70
2018-10-18T01:27:53.163Z,44.38
2018-10-18T01:32:55.456Z,46.45
2018-10-18T01:37:57.956Z,48.20
2018-10-18T01:43:00.380Z,52.25
2018-10-18T01:48:02.737Z,49.48
2018-10-18T01:53:05.531Z,50.75
2018-10-18T01:58:07.934Z,68.05
2018-10-18T02:03:10.219Z,68.10
2018-10-18T02:08:12.691Z,112.35
2018-10-18T02:13:14.969Z,77.55
2018-10-18T02:18:17.372Z,76.05
2018-10-18T02:23:19.757Z,94.05
2018-10-18T02:28:22.099Z,81.20
2018-10-18T02:33:24.388Z,64.27
2018-10-18T02:38:26.981Z,54.58
2018-10-18T02:43:29.282Z,53.10
2018-10-18T02:48:31.596Z,56.13
2018-10-18T02:53:34.094Z,56.83
2018-10-18T02:58:36.481Z,46.40
2018-10-18T03:03:38.803Z,51.83
2018-10-18T03:08:41.188Z,46.23
2018-10-18T03:13:43.500Z,46.10
2018-10-18T03:18:45.841Z,57.78
2018-10-18T03:23:48.233Z,60.20
2018-10-18T03:28:50.662Z,74.07
2018-10-18T03:33:52.927Z,61.05
2018-10-18T03:38:55.501Z,51.53
2018-10-18T03:43:57.873Z,47.17
2018-10-18T03:49:01.869Z,60.35
2018-10-18T03:54:06.481Z,56.75
2018-10-18T03:59:10.625Z,55.15
2018-10-18T04:04:14.596Z,49.88
2018-10-18T04:09:18.677Z,56.33
2018-10-18T04:14:22.652Z,47.62
2018-10-18T04:19:26.648Z,57.15
2018-10-18T04:24:30.736Z,55.50
2018-10-18T04:29:34.931Z,54.77
2018-10-18T04:34:39.395Z,59.90
2018-10-18T04:39:43.521Z,71.15
2018-10-18T04:44:47.509Z,66.57
2018-10-18T04:49:51.562Z,76.77
2018-10-18T04:54:55.564Z,58.55
2018-10-18T05:00:00.028Z,50.52
2018-10-18T05:05:15.278Z,58.10
2018-10-18T05:10:19.289Z,58.52
2018-10-18T05:15:23.334Z,48.05
2018-10-18T05:20:27.409Z,49.18
2018-10-18T05:25:32.281Z,43.42
2018-10-18T05:30:36.259Z,49.98
2018-10-18T05:35:40.229Z,53.23
2018-10-18T05:40:44.403Z,48.30
2018-10-18T05:45:48.373Z,45.17
2018-10-18T05:50:52.340Z,49.00
2018-10-18T05:55:56.297Z,46.18
2018-10-18T06:01:00.385Z,49.38
2018-10-18T06:06:04.488Z,51.95
2018-10-18T06:11:22.921Z,47.33
2018-10-18T06:16:28.005Z,53.28
2018-10-18T06:21:31.958Z,43.80
2018-10-18T06:26:36.612Z,47.10
2018-10-18T06:31:40.877Z,49.93
2018-10-18T06:36:44.866Z,48.35
2018-10-18T06:41:48.857Z,51.00
2018-10-18T06:46:52.953Z,63.78
2018-10-18T06:51:56.897Z,55.12
2018-10-18T06:57:00.873Z,48.80
2018-10-18T07:02:05.010Z,51.85
2018-10-18T07:07:09.006Z,49.25
2018-10-18T07:12:13.155Z,49.00
2018-10-18T07:17:17.069Z,53.65
2018-10-18T07:22:21.198Z,53.55
2018-10-18T07:27:25.151Z,53.40
2018-10-18T07:32:29.133Z,64.55
2018-10-18T07:37:33.095Z,66.30
2018-10-18T07:42:37.070Z,57.85
2018-10-18T07:47:41.310Z,54.13
2018-10-18T07:52:45.259Z,55.17
2018-10-18T07:57:49.231Z,53.00
2018-10-18T08:02:53.188Z,53.38
2018-10-18T08:07:57.844Z,57.13
2018-10-18T08:13:01.865Z,56.13
2018-10-18T08:18:06.121Z,51.75
2018-10-18T08:23:10.249Z,54.42
2018-10-18T08:28:14.190Z,59.10
2018-10-18T08:33:18.183Z,58.05
2018-10-18T08:38:22.975Z,63.50
2018-10-18T08:43:26.956Z,58.68
2018-10-18T08:48:31.788Z,64.82
2018-10-18T08:53:35.777Z,68.00
2018-10-18T08:58:39.763Z,68.83
2018-10-18T09:03:43.755Z,61.60
2018-10-18T09:08:47.729Z,58.83
2018-10-18T09:13:51.724Z,62.00
2018-10-18T09:18:55.721Z,71.28
2018-10-18T09:23:59.748Z,66.65
2018-10-18T09:29:03.809Z,63.45
2018-10-18T09:34:07.781Z,62.50
2018-10-18T09:39:11.771Z,67.32
2018-10-18T09:44:15.962Z,66.10
2018-10-18T09:49:19.858Z,70.70
2018-10-18T09:54:23.816Z,66.80
2018-10-18T09:59:28.235Z,70.45
2018-10-18T10:04:32.205Z,74.03
2018-10-18T10:09:36.395Z,73.75
2018-10-18T10:14:40.568Z,63.50
2018-10-18T10:19:44.828Z,64.45
2018-10-18T10:24:48.908Z,60.28
2018-10-18T10:29:52.940Z,65.42
2018-10-18T10:34:57.102Z,67.22
2018-10-18T10:40:01.166Z,62.73
2018-10-18T10:45:06.142Z,61.77
2018-10-18T10:50:10.654Z,64.87
2018-10-18T10:55:14.721Z,68.87
2018-10-18T11:01:13.811Z,60.45
2018-10-18T11:06:17.996Z,62.00
2018-10-18T11:11:22.503Z,57.75
2018-10-18T11:16:26.492Z,62.58
2018-10-18T11:21:30.514Z,59.42
2018-10-18T11:26:34.572Z,68.02
2018-10-18T11:31:38.542Z,66.00
2018-10-18T11:36:42.510Z,64.77
2018-10-18T11:41:46.490Z,63.80
2018-10-18T11:46:50.495Z,65.57
2018-10-18T11:51:54.563Z,73.12
2018-10-18T11:56:58.476Z,69.90
2018-10-18T12:02:02.478Z,73.92
2018-10-18T12:07:06.459Z,75.55
2018-10-18T12:12:10.437Z,82.70
2018-10-18T12:17:14.522Z,103.27
2018-10-18T12:22:18.467Z,108.85
2018-10-18T12:27:22.456Z,113.08
2018-10-18T12:32:27.025Z,109.52
2018-10-18T12:37:30.994Z,97.62
2018-10-18T12:42:36.023Z,102.58
2018-10-18T12:47:40.102Z,101.38
2018-10-18T12:52:44.085Z,101.67
2018-10-18T12:57:48.123Z,101.07
2018-10-18T13:02:52.099Z,98.95
2018-10-18T13:07:56.108Z,107.03
2018-10-18T13:13:00.178Z,94.25
2018-10-18T13:18:04.381Z,86.57
2018-10-18T13:23:08.699Z,97.00
2018-10-18T13:28:12.675Z,74.00
2018-10-18T13:33:16.652Z,68.33
2018-10-18T13:38:20.625Z,67.10
2018-10-18T13:43:24.634Z,72.35
2018-10-18T13:48:28.597Z,80.42
2018-10-18T13:53:36.545Z,84.30
2018-10-18T13:58:41.120Z,77.22
2018-10-18T14:03:45.090Z,74.03
2018-10-18T14:08:49.067Z,67.12
2018-10-18T14:13:53.152Z,69.90
2018-10-18T14:18:57.105Z,64.92
2018-10-18T14:24:01.371Z,65.03
2018-10-18T14:29:05.433Z,60.43
2018-10-18T14:34:09.957Z,59.30
2018-10-18T14:39:14.967Z,56.30
2018-10-18T14:44:19.272Z,54.58
2018-10-18T14:49:24.308Z,53.48
2018-10-18T14:54:28.307Z,53.68
2018-10-18T14:59:32.340Z,54.48
2018-10-18T15:04:36.827Z,56.73
2018-10-18T15:09:40.849Z,49.13
2018-10-18T15:14:44.965Z,53.83
2018-10-18T15:19:49.254Z,53.13
2018-10-18T15:24:53.305Z,53.30
2018-10-18T15:29:57.277Z,58.90
2018-10-18T15:35:01.324Z,64.65
2018-10-18T15:40:05.840Z,74.55
2018-10-18T15:45:10.525Z,69.53
2018-10-18T15:50:14.589Z,74.27
2018-10-18T15:55:18.587Z,73.37
2018-10-18T16:00:22.736Z,69.70
2018-10-18T16:05:26.877Z,59.45
2018-10-18T16:10:31.066Z,60.70
2018-10-18T16:15:35.274Z,63.75
2018-10-18T16:20:39.836Z,59.03
2018-10-18T16:25:44.092Z,59.83
2018-10-18T16:30:48.378Z,58.17
2018-10-18T16:35:52.572Z,57.45
2018-10-18T16:40:56.602Z,54.90
2018-10-18T16:46:00.676Z,57.65
2018-10-18T16:51:04.956Z,56.37
2018-10-18T16:56:08.990Z,57.13
2018-10-18T17:01:12.996Z,53.52
2018-10-18T17:06:16.986Z,58.68
2018-10-18T17:11:21.082Z,58.20
2018-10-18T17:16:25.179Z,58.52
2018-10-18T17:21:29.307Z,54.73
2018-10-18T17:26:33.529Z,58.23
2018-10-18T17:31:38.188Z,61.50
2018-10-18T17:36:42.226Z,56.15
2018-10-18T17:41:47.484Z,58.92
2018-10-18T17:46:51.900Z,65.15
2018-10-18T17:51:55.993Z,61.10
2018-10-18T17:57:00.908Z,54.75
2018-10-18T18:02:05.105Z,60.35
2018-10-18T18:07:09.771Z,60.03
2018-10-18T18:12:13.800Z,61.85
2018-10-18T18:17:17.789Z,62.13
2018-10-18T18:22:21.871Z,65.78
2018-10-18T18:27:25.954Z,58.65
2018-10-18T18:32:29.991Z,57.48
2018-10-18T18:37:34.108Z,61.77
2018-10-18T18:42:38.662Z,66.30
2018-10-18T18:47:42.789Z,67.82
2018-10-18T18:52:46.824Z,58.87
2018-10-18T18:57:50.828Z,59.25
2018-10-18T19:02:54.856Z,66.50
2018-10-18T19:07:58.837Z,61.70
2018-10-18T19:13:02.962Z,63.50
2018-10-18T19:18:07.068Z,71.10
2018-10-18T19:23:11.304Z,63.63
2018-10-18T19:28:15.659Z,66.97
2018-10-18T19:33:19.774Z,66.67
2018-10-18T19:38:23.786Z,65.42
2018-10-18T19:43:27.817Z,61.75
2018-10-18T19:48:32.083Z,63.92
2018-10-18T19:53:36.061Z,61.70
2018-10-18T19:58:40.150Z,64.00
2018-10-18T20:03:44.340Z,59.25
2018-10-18T20:08:48.666Z,68.65
2018-10-18T20:13:52.707Z,70.25
2018-10-18T20:18:56.669Z,70.37
2018-10-18T20:24:00.765Z,68.17
2018-10-18T20:29:04.881Z,62.70
2018-10-18T20:34:08.877Z,64.87
2018-10-18T20:39:12.949Z,65.55
2018-10-18T20:44:16.872Z,63.87
2018-10-18T20:49:20.849Z,55.28
2018-10-18T20:54:24.910Z,59.67
2018-10-18T20:59:29.927Z,57.58
2018-10-18T21:04:33.974Z,61.50
2018-10-18T21:09:37.951Z,65.45
2018-10-18T21:14:41.935Z,56.55
2018-10-18T21:19:45.972Z,55.50
2018-10-18T21:24:49.977Z,57.83
2018-10-18T21:29:53.986Z,51.90
2018-10-18T21:34:58.088Z,49.55
2018-10-18T21:40:02.160Z,48.83
2018-10-18T21:45:06.304Z,47.70
2018-10-18T21:50:10.255Z,49.63
2018-10-18T21:55:14.235Z,47.67
2018-10-18T22:00:18.417Z,50.03
2018-10-18T22:05:22.385Z,48.60
2018-10-18T22:10:26.457Z,49.23
2018-10-18T22:15:30.469Z,43.92
2018-10-18T22:20:34.463Z,47.70
2018-10-18T22:25:38.520Z,50.60
2018-10-18T22:30:42.529Z,50.08
2018-10-18T22:35:46.569Z,49.13
2018-10-18T22:40:50.631Z,43.38
2018-10-18T22:46:00.047Z,46.10
2018-10-18T22:51:04.114Z,44.83
2018-10-18T22:56:08.053Z,42.75
2018-10-18T23:01:12.184Z,42.55
2018-10-18T23:06:16.150Z,40.33
2018-10-18T23:11:20.107Z,39.03
2018-10-18T23:16:24.083Z,41.58
2018-10-18T23:21:28.127Z,40.52
2018-10-18T23:26:32.188Z,38.53
2018-10-18T23:31:36.166Z,41.58
2018-10-18T23:36:40.151Z,40.25
2018-10-18T23:41:44.166Z,42.58
2018-10-18T23:46:48.265Z,41.68
2018-10-18T23:51:52.228Z,38.05
2018-10-18T23:56:56.255Z,40.05
